createdAt,value
2019-05-12T00:00:48.401Z,9.99
2019-05-12T00:01:48.120Z,9.82
2019-05-12T00:02:48.438Z,9.89
2019-05-12T00:03:48.514Z,9.84
2019-05-12T00:04:48.696Z,9.84
2019-05-12T00:05:48.321Z,9.87
2019-05-12T00:06:47.871Z,9.86
2019-05-12T00:07:48.793Z,9.87
2019-05-12T00:08:48.734Z,9.84
2019-05-12T00:09:47.955Z,9.79
2019-05-12T00:10:47.838Z,9.73
2019-05-12T00:11:48.459Z,9.77
2019-05-12T00:12:48.197Z,9.66
2019-05-12T00:13:47.802Z,9.76
2019-05-12T00:14:48.504Z,9.73
2019-05-12T00:15:47.654Z,9.72
2019-05-12T00:16:48.952Z,9.80
2019-05-12T00:17:48.102Z,9.74
2019-05-12T00:18:48.332Z,9.69
2019-05-12T00:19:47.946Z,9.82
2019-05-12T00:20:47.657Z,9.73
2019-05-12T00:21:48.269Z,9.77
2019-05-12T00:22:48.153Z,9.74
2019-05-12T00:23:47.663Z,9.68
2019-05-12T00:24:47.874Z,9.79
2019-05-12T00:25:47.996Z,9.73
2019-05-12T00:26:47.768Z,9.69
2019-05-12T00:27:48.678Z,9.76
2019-05-12T00:28:48.238Z,9.83
2019-05-12T00:29:48.585Z,9.79
2019-05-12T00:30:48.593Z,9.72
2019-05-12T00:31:47.784Z,9.73
2019-05-12T00:32:47.845Z,9.68
2019-05-12T00:33:48.058Z,9.84
2019-05-12T00:34:48.030Z,9.77
2019-05-12T00:35:48.283Z,9.73
2019-05-12T00:36:48.394Z,9.79
2019-05-12T00:37:48.568Z,9.82
2019-05-12T00:38:48.433Z,9.83
2019-05-12T00:39:47.833Z,9.84
2019-05-12T00:40:47.922Z,9.80
2019-05-12T00:41:48.209Z,9.74
2019-05-12T00:42:48.430Z,9.80
2019-05-12T00:43:48.285Z,9.83
2019-05-12T00:44:47.891Z,9.69
2019-05-12T00:45:48.162Z,9.66
2019-05-12T00:46:48.571Z,9.68
2019-05-12T00:47:48.098Z,9.73
2019-05-12T00:48:48.222Z,9.74
2019-05-12T00:49:48.013Z,9.69
2019-05-12T00:50:48.156Z,9.74
2019-05-12T00:51:48.374Z,9.66
2019-05-12T00:52:46.126Z,9.72
2019-05-12T00:53:47.889Z,9.68
2019-05-12T00:54:48.262Z,9.68
2019-05-12T00:55:47.657Z,9.66
2019-05-12T00:56:47.992Z,9.72
2019-05-12T00:57:48.014Z,9.68
2019-05-12T00:58:46.035Z,9.69
2019-05-12T00:59:47.791Z,9.69
2019-05-12T01:00:48.140Z,9.72
2019-05-12T01:01:48.064Z,9.65
2019-05-12T01:02:48.511Z,9.74
2019-05-12T01:03:48.054Z,9.64
2019-05-12T01:04:45.949Z,9.69
2019-05-12T01:05:45.972Z,9.56
2019-05-12T01:06:45.931Z,9.66
2019-05-12T01:07:48.210Z,9.68
2019-05-12T01:08:48.379Z,9.66
2019-05-12T01:09:45.955Z,9.66
2019-05-12T01:10:47.840Z,9.66
2019-05-12T01:11:48.005Z,9.72
2019-05-12T01:12:45.867Z,9.69
2019-05-12T01:13:45.852Z,9.77
2019-05-12T01:14:47.821Z,9.79
2019-05-12T01:15:48.028Z,9.72
2019-05-12T01:16:45.819Z,9.73
2019-05-12T01:17:47.787Z,9.69
2019-05-12T01:18:47.991Z,9.76
2019-05-12T01:19:48.468Z,9.72
2019-05-12T01:20:47.952Z,9.73
2019-05-12T01:21:47.989Z,9.76
2019-05-12T01:22:45.751Z,9.73
2019-05-12T01:23:56.350Z,9.64
2019-05-12T01:24:48.312Z,9.73
2019-05-12T01:25:47.815Z,9.62
2019-05-12T01:26:47.624Z,9.62
2019-05-12T01:27:48.241Z,9.73
2019-05-12T01:28:45.680Z,9.73
2019-05-12T01:29:47.912Z,9.68
2019-05-12T01:30:47.798Z,9.76
2019-05-12T01:31:45.652Z,9.68
2019-05-12T01:32:45.661Z,9.76
2019-05-12T01:33:45.633Z,9.77
2019-05-12T01:34:45.619Z,9.77
2019-05-12T01:35:45.643Z,9.72
2019-05-12T01:36:45.595Z,9.72
2019-05-12T01:37:45.577Z,9.68
2019-05-12T01:38:48.145Z,9.68
2019-05-12T01:39:45.558Z,9.69
2019-05-12T01:40:47.507Z,9.68
2019-05-12T01:41:48.014Z,9.65
2019-05-12T01:42:45.526Z,9.61
2019-05-12T01:43:45.517Z,9.65
2019-05-12T01:44:48.060Z,9.65
2019-05-12T01:45:45.501Z,9.59
2019-05-12T01:46:45.542Z,9.72
2019-05-12T01:47:45.495Z,9.66
2019-05-12T01:48:45.466Z,9.69
2019-05-12T01:49:45.459Z,9.68
2019-05-12T01:50:47.451Z,9.62
2019-05-12T01:51:47.547Z,9.69
2019-05-12T01:52:47.698Z,9.56
2019-05-12T01:53:45.399Z,9.56
2019-05-12T01:54:45.412Z,9.51
2019-05-12T01:55:45.389Z,9.55
2019-05-12T01:56:45.374Z,9.54
2019-05-12T01:57:45.361Z,9.64
2019-05-12T01:58:45.361Z,9.64
2019-05-12T01:59:45.337Z,9.58
2019-05-12T02:00:45.324Z,9.68
2019-05-12T02:01:45.310Z,9.62
2019-05-12T02:02:45.340Z,9.68
2019-05-12T02:03:45.292Z,9.59
2019-05-12T02:04:45.328Z,9.62
2019-05-12T02:05:45.272Z,9.66
2019-05-12T02:06:45.255Z,9.69
2019-05-12T02:07:47.775Z,9.62
2019-05-12T02:08:47.604Z,9.65
2019-05-12T02:09:45.225Z,9.59
2019-05-12T02:10:45.210Z,9.59
2019-05-12T02:11:45.207Z,9.59
2019-05-12T02:12:45.199Z,9.64
2019-05-12T02:13:45.177Z,9.65
2019-05-12T02:14:45.192Z,9.66
2019-05-12T02:15:45.157Z,9.58
2019-05-12T02:16:45.149Z,9.74
2019-05-12T02:17:45.151Z,9.65
2019-05-12T02:18:45.135Z,9.66
2019-05-12T02:19:45.116Z,9.59
2019-05-12T02:20:45.105Z,9.59
2019-05-12T02:21:45.094Z,9.58
2019-05-12T02:22:45.102Z,9.65
2019-05-12T02:23:45.075Z,9.68
2019-05-12T02:24:45.071Z,9.62
2019-05-12T02:25:45.053Z,9.56
2019-05-12T02:26:45.040Z,9.66
2019-05-12T02:27:45.030Z,9.58
2019-05-12T02:28:45.015Z,9.55
2019-05-12T02:29:45.016Z,9.58
2019-05-12T02:30:45.001Z,9.61
2019-05-12T02:31:44.989Z,9.58
2019-05-12T02:32:52.423Z,9.59
2019-05-12T02:33:45.955Z,9.55
2019-05-12T02:34:45.761Z,9.56
2019-05-12T02:35:44.945Z,9.59
2019-05-12T02:36:45.133Z,9.58
2019-05-12T02:37:45.343Z,9.56
2019-05-12T02:38:45.461Z,9.59
2019-05-12T02:39:45.063Z,9.61
2019-05-12T02:40:45.028Z,9.51
2019-05-12T02:41:45.184Z,9.54
2019-05-12T02:42:46.271Z,9.50
2019-05-12T02:43:45.777Z,9.56
2019-05-12T02:44:44.847Z,9.56
2019-05-12T02:45:44.852Z,9.58
2019-05-12T02:46:44.957Z,9.61
2019-05-12T02:47:45.882Z,9.44
2019-05-12T02:48:45.106Z,9.48
2019-05-12T02:49:44.992Z,9.48
2019-05-12T02:50:45.284Z,9.48
2019-05-12T02:51:45.657Z,9.48
2019-05-12T02:52:44.754Z,9.48
2019-05-12T02:53:47.070Z,9.55
2019-05-12T02:54:54.466Z,9.48
2019-05-12T02:55:45.756Z,9.56
2019-05-12T02:56:45.008Z,9.48
2019-05-12T02:57:45.325Z,9.48
2019-05-12T02:58:45.370Z,9.50
2019-05-12T02:59:44.928Z,9.46
2019-05-12T03:00:45.580Z,9.39
2019-05-12T03:01:45.299Z,9.46
2019-05-12T03:02:44.658Z,9.43
2019-05-12T03:03:44.632Z,9.41
2019-05-12T03:04:44.620Z,9.39
2019-05-12T03:05:44.619Z,9.39
2019-05-12T03:06:44.806Z,9.43
2019-05-12T03:07:44.910Z,9.41
2019-05-12T03:08:44.981Z,9.41
2019-05-12T03:09:44.830Z,9.40
2019-05-12T03:10:44.946Z,9.39
2019-05-12T03:11:44.790Z,9.40
2019-05-12T03:12:45.120Z,9.44
2019-05-12T03:13:44.963Z,9.39
2019-05-12T03:14:44.887Z,9.46
2019-05-12T03:15:44.747Z,9.43
2019-05-12T03:16:45.356Z,9.44
2019-05-12T03:17:44.528Z,9.36
2019-05-12T03:18:45.115Z,9.41
2019-05-12T03:19:44.936Z,9.26
2019-05-12T03:20:45.485Z,9.37
2019-05-12T03:21:44.457Z,9.25
2019-05-12T03:22:44.978Z,9.31
2019-05-12T03:23:44.955Z,9.28
2019-05-12T03:24:44.966Z,9.28
2019-05-12T03:25:45.578Z,9.26
2019-05-12T03:26:45.086Z,9.31
2019-05-12T03:27:44.641Z,9.26
2019-05-12T03:28:44.793Z,9.25
2019-05-12T03:29:44.971Z,9.28
2019-05-12T03:30:48.534Z,9.37
2019-05-12T03:31:48.702Z,9.23
2019-05-12T03:32:47.375Z,9.32
2019-05-12T03:33:52.230Z,9.28
2019-05-12T03:34:47.335Z,9.32
2019-05-12T03:35:52.251Z,9.29
2019-05-12T03:36:50.629Z,9.37
2019-05-12T03:37:45.457Z,9.26
2019-05-12T03:38:44.972Z,9.28
2019-05-12T03:39:44.832Z,9.39
2019-05-12T03:40:44.981Z,9.40
2019-05-12T03:41:44.663Z,9.41
2019-05-12T03:42:44.606Z,9.37
2019-05-12T03:43:45.003Z,9.40
2019-05-12T03:44:44.622Z,9.39
2019-05-12T03:45:45.349Z,9.41
2019-05-12T03:46:45.619Z,9.39
2019-05-12T03:47:45.457Z,9.41
2019-05-12T03:48:45.425Z,9.40
2019-05-12T03:49:45.435Z,9.46
2019-05-12T03:50:46.075Z,9.47
2019-05-12T03:51:45.662Z,9.40
2019-05-12T03:52:44.970Z,9.41
2019-05-12T03:53:45.511Z,9.39
2019-05-12T03:54:45.202Z,9.44
2019-05-12T03:55:46.955Z,9.40
2019-05-12T03:56:45.083Z,9.40
2019-05-12T03:57:45.097Z,9.43
2019-05-12T03:58:45.236Z,9.41
2019-05-12T03:59:44.970Z,9.39
2019-05-12T04:00:44.753Z,9.39
2019-05-12T04:01:45.031Z,9.44
2019-05-12T04:02:45.359Z,9.46
2019-05-12T04:03:45.126Z,9.44
2019-05-12T04:04:45.345Z,9.43
2019-05-12T04:05:45.200Z,9.47
2019-05-12T04:06:45.248Z,9.47
2019-05-12T04:07:44.998Z,9.47
2019-05-12T04:08:45.554Z,9.56
2019-05-12T04:09:45.147Z,9.47
2019-05-12T04:10:45.368Z,9.48
2019-05-12T04:11:44.509Z,9.50
2019-05-12T04:12:44.820Z,9.55
2019-05-12T04:13:45.241Z,9.51
2019-05-12T04:14:44.895Z,9.54
2019-05-12T04:15:45.401Z,9.55
2019-05-12T04:16:45.160Z,9.64
2019-05-12T04:17:45.288Z,9.55
2019-05-12T04:18:45.027Z,9.54
2019-05-12T04:19:44.702Z,9.55
2019-05-12T04:20:45.190Z,9.62
2019-05-12T04:21:44.776Z,9.55
2019-05-12T04:22:44.618Z,9.61
2019-05-12T04:23:44.453Z,9.58
2019-05-12T04:24:44.550Z,9.58
2019-05-12T04:25:52.362Z,9.59
2019-05-12T04:26:45.140Z,9.55
2019-05-12T04:27:45.119Z,9.54
2019-05-12T04:28:45.567Z,9.54
2019-05-12T04:29:44.233Z,9.62
2019-05-12T04:30:44.533Z,9.54
2019-05-12T04:31:44.364Z,9.58
2019-05-12T04:32:45.165Z,9.51
2019-05-12T04:33:45.236Z,9.58
2019-05-12T04:34:44.667Z,9.55
2019-05-12T04:35:45.152Z,9.58
2019-05-12T04:36:44.885Z,9.56
2019-05-12T04:37:44.990Z,9.54
2019-05-12T04:38:45.014Z,9.59
2019-05-12T04:39:44.716Z,9.54
2019-05-12T04:40:44.956Z,9.62
2019-05-12T04:41:44.731Z,9.61
2019-05-12T04:42:45.212Z,9.61
2019-05-12T04:43:44.732Z,9.51
2019-05-12T04:44:44.854Z,9.58
2019-05-12T04:45:45.147Z,9.51
2019-05-12T04:46:44.997Z,9.61
2019-05-12T04:47:44.971Z,9.61
2019-05-12T04:48:45.307Z,9.59
2019-05-12T04:49:45.164Z,9.61
2019-05-12T04:50:45.203Z,9.59
2019-05-12T04:51:45.236Z,9.58
2019-05-12T04:52:44.527Z,9.61
2019-05-12T04:53:44.924Z,9.58
2019-05-12T04:54:44.512Z,9.56
2019-05-12T04:55:44.601Z,9.62
2019-05-12T04:56:44.595Z,9.58
2019-05-12T04:57:45.134Z,9.58
2019-05-12T04:58:45.066Z,9.65
2019-05-12T04:59:45.070Z,9.66
2019-05-12T05:00:44.840Z,9.64
2019-05-12T05:01:45.300Z,9.68
2019-05-12T05:02:45.495Z,9.64
2019-05-12T05:03:44.269Z,9.72
2019-05-12T05:04:44.134Z,9.61
2019-05-12T05:05:44.419Z,9.68
2019-05-12T05:06:44.867Z,9.73
2019-05-12T05:07:44.801Z,9.68
2019-05-12T05:08:44.308Z,9.68
2019-05-12T05:09:44.254Z,9.77
2019-05-12T05:10:44.364Z,9.74
2019-05-12T05:11:45.087Z,9.77
2019-05-12T05:12:44.912Z,9.69
2019-05-12T05:13:44.382Z,9.77
2019-05-12T05:14:44.577Z,9.89
2019-05-12T05:15:44.586Z,9.83
2019-05-12T05:16:45.130Z,9.82
2019-05-12T05:17:44.127Z,9.89
2019-05-12T05:18:43.937Z,9.83
2019-05-12T05:19:44.122Z,9.97
2019-05-12T05:20:43.832Z,9.99
2019-05-12T05:21:43.742Z,9.97
2019-05-12T05:22:44.008Z,10.07
2019-05-12T05:23:44.321Z,10.13
2019-05-12T05:24:44.393Z,10.12
2019-05-12T05:25:43.534Z,10.15
2019-05-12T05:26:43.577Z,10.16
2019-05-12T05:27:44.342Z,10.20
2019-05-12T05:28:43.634Z,10.23
2019-05-12T05:29:43.769Z,10.25
2019-05-12T05:30:44.091Z,10.26
2019-05-12T05:31:44.181Z,10.30
2019-05-12T05:32:44.436Z,10.33
2019-05-12T05:33:43.561Z,10.35
2019-05-12T05:34:46.013Z,10.41
2019-05-12T05:35:43.963Z,10.40
2019-05-12T05:36:43.442Z,10.44
2019-05-12T05:37:44.171Z,10.53
2019-05-12T05:38:43.673Z,10.51
2019-05-12T05:39:49.257Z,10.57
2019-05-12T05:40:43.892Z,10.63
2019-05-12T05:41:46.475Z,10.67
2019-05-12T05:42:44.166Z,10.74
2019-05-12T05:43:43.759Z,10.67
2019-05-12T05:44:43.468Z,10.57
2019-05-12T05:45:43.860Z,10.56
2019-05-12T05:46:47.713Z,10.54
2019-05-12T05:47:44.438Z,10.61
2019-05-12T05:48:43.976Z,10.59
2019-05-12T05:49:43.448Z,10.68
2019-05-12T05:50:43.878Z,10.57
2019-05-12T05:51:46.661Z,10.61
2019-05-12T05:52:43.950Z,10.60
2019-05-12T05:53:44.211Z,10.57
2019-05-12T05:54:44.006Z,10.59
2019-05-12T05:55:44.227Z,10.44
2019-05-12T05:56:56.955Z,10.46
2019-05-12T05:57:44.357Z,10.42
2019-05-12T05:58:47.114Z,10.48
2019-05-12T05:59:44.695Z,10.53
2019-05-12T06:00:43.455Z,10.56
2019-05-12T06:01:46.894Z,10.54
2019-05-12T06:02:44.279Z,10.63
2019-05-12T06:03:44.151Z,10.56
2019-05-12T06:04:45.415Z,10.59
2019-05-12T06:05:43.612Z,10.56
2019-05-12T06:06:50.775Z,10.56
2019-05-12T06:07:44.341Z,10.57
2019-05-12T06:08:44.267Z,10.60
2019-05-12T06:09:43.291Z,10.61
2019-05-12T06:10:43.507Z,10.64
2019-05-12T06:11:43.763Z,10.61
2019-05-12T06:12:48.737Z,10.75
2019-05-12T06:13:44.307Z,10.68
2019-05-12T06:14:48.777Z,10.63
2019-05-12T06:15:43.527Z,10.75
2019-05-12T06:16:43.359Z,10.76
2019-05-12T06:17:43.864Z,10.84
2019-05-12T06:18:43.991Z,10.71
2019-05-12T06:19:43.763Z,10.84
2019-05-12T06:20:43.663Z,10.74
2019-05-12T06:21:44.009Z,10.84
2019-05-12T06:22:43.769Z,10.76
2019-05-12T06:23:43.427Z,10.76
2019-05-12T06:24:44.161Z,10.81
2019-05-12T06:25:49.380Z,10.90
2019-05-12T06:26:56.804Z,11.02
2019-05-12T06:27:44.343Z,11.17
2019-05-12T06:28:43.972Z,11.23
2019-05-12T06:29:43.756Z,11.32
2019-05-12T06:30:45.036Z,11.44
2019-05-12T06:31:44.131Z,11.37
2019-05-12T06:32:50.189Z,11.29
2019-05-12T06:33:44.664Z,11.22
2019-05-12T06:34:43.561Z,11.17
2019-05-12T06:35:45.133Z,11.18
2019-05-12T06:36:44.075Z,11.11
2019-05-12T06:37:44.324Z,11.11
2019-05-12T06:38:43.474Z,11.11
2019-05-12T06:39:43.570Z,11.00
2019-05-12T06:40:44.700Z,11.08
2019-05-12T06:41:44.351Z,10.93
2019-05-12T06:42:43.607Z,10.94
2019-05-12T06:43:45.177Z,10.90
2019-05-12T06:44:43.801Z,10.93
2019-05-12T06:45:45.334Z,10.90
2019-05-12T06:46:44.113Z,10.90
2019-05-12T06:47:45.275Z,11.00
2019-05-12T06:48:45.374Z,10.99
2019-05-12T06:49:43.955Z,11.08
2019-05-12T06:50:44.143Z,11.17
2019-05-12T06:51:44.330Z,11.15
2019-05-12T06:52:46.802Z,11.17
2019-05-12T06:53:44.348Z,11.10
2019-05-12T06:54:51.040Z,11.04
2019-05-12T06:55:43.384Z,10.97
2019-05-12T06:56:43.537Z,10.92
2019-05-12T06:57:45.929Z,10.89
2019-05-12T06:58:44.258Z,11.02
2019-05-12T06:59:50.543Z,11.02
2019-05-12T07:00:43.777Z,11.00
2019-05-12T07:01:41.982Z,11.11
2019-05-12T07:02:50.091Z,11.18
2019-05-12T07:03:44.066Z,11.33
2019-05-12T07:04:49.792Z,11.43
2019-05-12T07:05:45.174Z,11.47
2019-05-12T07:06:44.097Z,11.68
2019-05-12T07:07:45.745Z,11.69
2019-05-12T07:08:43.848Z,11.72
2019-05-12T07:09:53.637Z,11.70
2019-05-12T07:10:46.031Z,11.77
2019-05-12T07:11:52.844Z,11.65
2019-05-12T07:12:58.259Z,11.62
2019-05-12T07:13:43.637Z,11.57
2019-05-12T07:14:43.820Z,11.47
2019-05-12T07:15:43.766Z,11.45
2019-05-12T07:16:43.755Z,11.44
2019-05-12T07:17:44.324Z,11.41
2019-05-12T07:18:43.702Z,11.47
2019-05-12T07:19:43.599Z,11.44
2019-05-12T07:20:43.511Z,11.44
2019-05-12T07:21:43.882Z,11.41
2019-05-12T07:22:45.816Z,11.37
2019-05-12T07:23:44.442Z,11.37
2019-05-12T07:24:50.188Z,11.37
2019-05-12T07:25:44.442Z,11.40
2019-05-12T07:26:41.705Z,11.27
2019-05-12T07:27:47.331Z,11.26
2019-05-12T07:28:43.376Z,11.29
2019-05-12T07:29:43.606Z,11.19
2019-05-12T07:30:43.898Z,11.29
2019-05-12T07:31:41.649Z,11.26
2019-05-12T07:32:43.356Z,11.48
2019-05-12T07:33:45.049Z,11.55
2019-05-12T07:34:43.634Z,11.72
2019-05-12T07:35:44.154Z,11.83
2019-05-12T07:36:41.593Z,11.97
2019-05-12T07:37:43.626Z,12.10
2019-05-12T07:38:43.416Z,12.15
2019-05-12T07:39:47.269Z,12.21
2019-05-12T07:40:44.387Z,12.27
2019-05-12T07:41:50.407Z,12.37
2019-05-12T07:42:43.878Z,12.32
2019-05-12T07:43:44.162Z,12.31
2019-05-12T07:44:43.983Z,12.43
2019-05-12T07:45:41.492Z,12.36
2019-05-12T07:46:45.649Z,12.39
2019-05-12T07:47:44.802Z,12.39
2019-05-12T07:48:46.555Z,12.42
2019-05-12T07:49:44.104Z,12.43
2019-05-12T07:50:43.353Z,12.42
2019-05-12T07:51:41.437Z,12.40
2019-05-12T07:52:43.985Z,12.46
2019-05-12T07:53:46.802Z,12.27
2019-05-12T07:54:44.379Z,12.35
2019-05-12T07:55:47.446Z,12.35
2019-05-12T07:56:44.250Z,12.31
2019-05-12T07:57:52.882Z,12.40
2019-05-12T07:58:47.489Z,12.40
2019-05-12T07:59:43.786Z,12.35
2019-05-12T08:00:41.333Z,12.45
2019-05-12T08:01:48.644Z,12.32
2019-05-12T08:02:44.418Z,12.31
2019-05-12T08:03:43.532Z,12.43
2019-05-12T08:04:43.892Z,12.35
2019-05-12T08:05:43.758Z,12.32
2019-05-12T08:06:42.449Z,12.43
2019-05-12T08:07:44.502Z,12.28
2019-05-12T08:08:50.196Z,12.39
2019-05-12T08:09:43.240Z,12.32
2019-05-12T08:10:41.218Z,12.54
2019-05-12T08:11:43.247Z,12.64
2019-05-12T08:12:41.190Z,12.64
2019-05-12T08:13:43.662Z,12.67
2019-05-12T08:14:43.833Z,12.72
2019-05-12T08:15:45.670Z,12.70
2019-05-12T08:16:43.748Z,12.83
2019-05-12T08:17:41.142Z,12.98
2019-05-12T08:18:41.241Z,13.08
2019-05-12T08:19:41.193Z,13.22
2019-05-12T08:20:43.378Z,13.31
2019-05-12T08:21:42.598Z,13.31
2019-05-12T08:22:43.839Z,13.30
2019-05-12T08:23:41.068Z,13.28
2019-05-12T08:24:43.639Z,13.25
2019-05-12T08:25:43.769Z,13.41
2019-05-12T08:26:43.425Z,13.59
2019-05-12T08:27:45.254Z,13.59
2019-05-12T08:28:44.140Z,13.63
2019-05-12T08:29:42.843Z,13.78
2019-05-12T08:30:49.724Z,14.03
2019-05-12T08:31:44.044Z,14.20
2019-05-12T08:32:40.983Z,14.23
2019-05-12T08:33:43.479Z,14.25
2019-05-12T08:34:43.582Z,14.25
2019-05-12T08:35:40.935Z,14.25
2019-05-12T08:36:45.065Z,14.32
2019-05-12T08:37:44.177Z,14.37
2019-05-12T08:38:40.901Z,14.47
2019-05-12T08:39:40.893Z,14.58
2019-05-12T08:40:48.754Z,14.54
2019-05-12T08:41:44.269Z,14.50
2019-05-12T08:42:43.410Z,14.32
2019-05-12T08:43:46.901Z,14.12
2019-05-12T08:44:43.981Z,14.17
2019-05-12T08:45:40.831Z,14.23
2019-05-12T08:46:43.241Z,14.48
2019-05-12T08:47:43.890Z,14.50
2019-05-12T08:48:40.796Z,14.58
2019-05-12T08:49:50.097Z,14.45
2019-05-12T08:50:45.362Z,14.51
2019-05-12T08:51:40.759Z,14.78
2019-05-12T08:52:41.973Z,14.81
2019-05-12T08:53:40.764Z,14.86
2019-05-12T08:54:45.421Z,14.97
2019-05-12T08:55:43.591Z,14.96
2019-05-12T08:56:40.701Z,14.94
2019-05-12T08:57:46.412Z,14.77
2019-05-12T08:58:48.198Z,14.65
2019-05-12T08:59:43.996Z,14.45
2019-05-12T09:00:46.510Z,14.66
2019-05-12T09:01:43.721Z,15.09
2019-05-12T09:02:46.118Z,15.24
2019-05-12T09:03:44.090Z,15.49
2019-05-12T09:04:43.125Z,15.61
2019-05-12T09:05:41.609Z,15.76
2019-05-12T09:06:40.599Z,15.73
2019-05-12T09:07:40.585Z,15.79
2019-05-12T09:08:45.191Z,15.65
2019-05-12T09:09:43.807Z,15.57
2019-05-12T09:10:40.594Z,15.40
2019-05-12T09:11:40.539Z,15.49
2019-05-12T09:12:40.539Z,15.61
2019-05-12T09:13:40.519Z,15.72
2019-05-12T09:14:41.427Z,15.82
2019-05-12T09:15:43.567Z,15.82
2019-05-12T09:16:40.496Z,15.94
2019-05-12T09:17:49.058Z,16.21
2019-05-12T09:18:43.538Z,16.46
2019-05-12T09:19:40.454Z,16.68
2019-05-12T09:20:48.896Z,16.94
2019-05-12T09:21:44.046Z,17.02
2019-05-12T09:22:40.429Z,17.26
2019-05-12T09:23:41.453Z,17.52
2019-05-12T09:24:40.407Z,17.54
2019-05-12T09:25:45.310Z,17.41
2019-05-12T09:26:43.325Z,17.23
2019-05-12T09:27:45.650Z,17.24
2019-05-12T09:28:47.487Z,17.26
2019-05-12T09:29:43.433Z,17.33
2019-05-12T09:30:47.515Z,17.22
2019-05-12T09:31:41.319Z,17.05
2019-05-12T09:32:45.368Z,16.78
2019-05-12T09:33:41.303Z,16.66
2019-05-12T09:34:46.946Z,16.58
2019-05-12T09:35:43.572Z,16.64
2019-05-12T09:36:40.274Z,16.78
2019-05-12T09:37:40.664Z,16.64
2019-05-12T09:38:41.088Z,16.47
2019-05-12T09:39:43.591Z,16.58
2019-05-12T09:40:43.532Z,16.49
2019-05-12T09:41:43.966Z,16.74
2019-05-12T09:42:41.217Z,17.02
2019-05-12T09:43:45.203Z,17.09
2019-05-12T09:44:42.007Z,17.12
2019-05-12T09:45:49.773Z,16.90
2019-05-12T09:46:41.167Z,16.69
2019-05-12T09:47:40.149Z,16.72
2019-05-12T09:48:46.951Z,16.53
2019-05-12T09:49:41.117Z,16.66
2019-05-12T09:50:40.113Z,16.89
2019-05-12T09:51:42.915Z,16.90
2019-05-12T09:52:41.103Z,16.93
2019-05-12T09:53:42.838Z,17.22
2019-05-12T09:54:41.177Z,17.49
2019-05-12T09:55:40.062Z,17.33
2019-05-12T09:56:41.306Z,16.97
2019-05-12T09:57:41.162Z,17.01
2019-05-12T09:58:40.029Z,17.09
2019-05-12T09:59:40.038Z,17.22
2019-05-12T10:00:40.000Z,17.20
2019-05-12T10:01:42.942Z,17.39
2019-05-12T10:02:43.135Z,17.52
2019-05-12T10:03:40.210Z,17.60
2019-05-12T10:04:39.973Z,17.70
2019-05-12T10:05:41.381Z,17.65
2019-05-12T10:06:39.937Z,17.60
2019-05-12T10:07:39.926Z,17.48
2019-05-12T10:08:39.917Z,17.68
2019-05-12T10:09:39.905Z,17.64
2019-05-12T10:10:40.807Z,17.78
2019-05-12T10:11:39.906Z,17.41
2019-05-12T10:12:46.264Z,17.31
2019-05-12T10:13:40.880Z,17.24
2019-05-12T10:14:40.711Z,17.11
2019-05-12T10:15:40.871Z,17.09
2019-05-12T10:16:45.708Z,17.23
2019-05-12T10:17:43.261Z,17.34
2019-05-12T10:18:45.436Z,17.27
2019-05-12T10:19:40.804Z,17.39
2019-05-12T10:20:40.036Z,17.20
2019-05-12T10:21:39.780Z,16.93
2019-05-12T10:22:40.446Z,16.91
2019-05-12T10:23:39.790Z,17.05
2019-05-12T10:24:42.326Z,17.29
2019-05-12T10:25:39.738Z,17.46
2019-05-12T10:26:41.127Z,17.49
2019-05-12T10:27:40.736Z,17.68
2019-05-12T10:28:45.348Z,17.78
2019-05-12T10:29:40.690Z,17.76
2019-05-12T10:30:39.686Z,17.52
2019-05-12T10:31:39.677Z,17.51
2019-05-12T10:32:39.664Z,17.45
2019-05-12T10:33:39.665Z,17.48
2019-05-12T10:34:40.456Z,17.56
2019-05-12T10:35:39.628Z,17.57
2019-05-12T10:36:46.902Z,17.68
2019-05-12T10:37:40.606Z,17.83
2019-05-12T10:38:39.621Z,17.79
2019-05-12T10:39:39.591Z,17.94
2019-05-12T10:40:39.584Z,18.13
2019-05-12T10:41:39.561Z,18.26
2019-05-12T10:42:44.863Z,18.28
2019-05-12T10:43:40.538Z,18.34
2019-05-12T10:44:40.853Z,18.47
2019-05-12T10:45:39.525Z,18.49
2019-05-12T10:46:42.311Z,18.33
2019-05-12T10:47:39.507Z,18.35
2019-05-12T10:48:39.492Z,18.38
2019-05-12T10:49:39.481Z,18.62
2019-05-12T10:50:39.483Z,18.63
2019-05-12T10:51:39.478Z,18.66
2019-05-12T10:52:39.486Z,18.55
2019-05-12T10:53:39.436Z,18.77
2019-05-12T10:54:39.426Z,18.83
2019-05-12T10:55:39.418Z,18.80
2019-05-12T10:56:39.412Z,18.58
2019-05-12T10:57:39.400Z,18.52
2019-05-12T10:58:39.396Z,18.59
2019-05-12T10:59:45.233Z,18.43
2019-05-12T11:00:40.368Z,18.45
2019-05-12T11:01:47.144Z,18.49
2019-05-12T11:02:40.347Z,18.43
2019-05-12T11:03:42.954Z,18.44
2019-05-12T11:04:41.250Z,18.38
2019-05-12T11:05:39.315Z,18.60
2019-05-12T11:06:39.709Z,18.58
2019-05-12T11:07:39.293Z,18.52
2019-05-12T11:08:41.251Z,18.35
2019-05-12T11:09:40.294Z,18.29
2019-05-12T11:10:39.261Z,18.41
2019-05-12T11:11:42.293Z,18.60
2019-05-12T11:12:40.238Z,18.62
2019-05-12T11:13:40.262Z,18.59
2019-05-12T11:14:40.259Z,18.71
2019-05-12T11:15:39.682Z,18.78
2019-05-12T11:16:42.522Z,19.07
2019-05-12T11:17:40.169Z,19.27
2019-05-12T11:18:39.172Z,19.52
2019-05-12T11:19:40.776Z,19.62
2019-05-12T11:20:40.166Z,19.70
2019-05-12T11:21:39.141Z,19.59
2019-05-12T11:22:39.124Z,19.55
2019-05-12T11:23:39.113Z,19.54
2019-05-12T11:24:39.102Z,19.39
2019-05-12T11:25:39.109Z,19.49
2019-05-12T11:26:39.088Z,19.58
2019-05-12T11:27:39.093Z,19.63
2019-05-12T11:28:39.060Z,19.55
2019-05-12T11:29:46.307Z,19.24
2019-05-12T11:30:40.052Z,19.33
2019-05-12T11:31:39.033Z,19.47
2019-05-12T11:32:39.025Z,19.76
2019-05-12T11:33:39.009Z,20.10
2019-05-12T11:34:38.996Z,20.14
2019-05-12T11:35:38.998Z,20.48
2019-05-12T11:36:38.981Z,20.56
2019-05-12T11:37:38.990Z,20.62
2019-05-12T11:38:38.954Z,20.31
2019-05-12T11:39:44.659Z,20.21
2019-05-12T11:40:39.956Z,20.02
2019-05-12T11:41:38.929Z,19.92
2019-05-12T11:42:38.915Z,20.14
2019-05-12T11:43:38.907Z,20.37
2019-05-12T11:44:38.914Z,20.62
2019-05-12T11:45:38.881Z,20.62
2019-05-12T11:46:38.886Z,20.78
2019-05-12T11:47:38.863Z,20.77
2019-05-12T11:48:40.351Z,20.97
2019-05-12T11:49:39.847Z,20.80
2019-05-12T11:50:40.373Z,20.62
2019-05-12T11:51:39.827Z,20.37
2019-05-12T11:52:38.818Z,20.06
2019-05-12T11:53:38.804Z,19.89
2019-05-12T11:54:41.261Z,19.84
2019-05-12T11:55:39.779Z,19.85
2019-05-12T11:56:40.289Z,19.84
2019-05-12T11:57:39.760Z,19.79
2019-05-12T11:58:41.245Z,19.63
2019-05-12T11:59:39.738Z,19.71
2019-05-12T12:00:38.744Z,19.92
2019-05-12T12:01:39.661Z,20.00
2019-05-12T12:02:39.707Z,20.36
2019-05-12T12:03:38.700Z,20.65
2019-05-12T12:04:38.695Z,20.88
2019-05-12T12:05:38.672Z,20.88
2019-05-12T12:06:38.685Z,21.14
2019-05-12T12:07:45.705Z,21.30
2019-05-12T12:08:39.672Z,21.27
2019-05-12T12:09:38.642Z,21.07
2019-05-12T12:10:39.988Z,21.14
2019-05-12T12:11:38.651Z,21.15
2019-05-12T12:12:39.625Z,21.05
2019-05-12T12:13:39.586Z,20.78
2019-05-12T12:14:40.099Z,20.62
2019-05-12T12:15:39.566Z,20.34
2019-05-12T12:16:41.911Z,20.67
2019-05-12T12:17:39.595Z,21.05
2019-05-12T12:18:38.539Z,21.35
2019-05-12T12:19:43.871Z,21.73
2019-05-12T12:20:39.516Z,21.92
2019-05-12T12:21:40.387Z,21.79
2019-05-12T12:22:39.497Z,21.45
2019-05-12T12:23:41.003Z,21.33
2019-05-12T12:24:39.471Z,21.37
2019-05-12T12:25:43.011Z,21.42
2019-05-12T12:26:39.454Z,21.72
2019-05-12T12:27:38.448Z,21.39
2019-05-12T12:28:38.442Z,21.17
2019-05-12T12:29:38.423Z,20.77
2019-05-12T12:30:38.417Z,20.67
2019-05-12T12:31:38.950Z,20.28
2019-05-12T12:32:38.414Z,20.11
2019-05-12T12:33:40.662Z,20.50
2019-05-12T12:34:38.378Z,20.95
2019-05-12T12:35:38.365Z,21.27
2019-05-12T12:36:38.353Z,21.24
2019-05-12T12:37:38.367Z,21.05
2019-05-12T12:38:38.326Z,20.95
2019-05-12T12:39:38.315Z,21.17
2019-05-12T12:40:38.303Z,21.30
2019-05-12T12:41:45.692Z,21.48
2019-05-12T12:42:44.177Z,21.79
2019-05-12T12:43:39.276Z,21.50
2019-05-12T12:44:38.273Z,21.21
2019-05-12T12:45:40.420Z,21.14
2019-05-12T12:46:38.239Z,21.02
2019-05-12T12:47:44.347Z,20.93
2019-05-12T12:48:39.238Z,20.85
2019-05-12T12:49:39.905Z,20.99
2019-05-12T12:50:39.203Z,21.17
2019-05-12T12:51:38.189Z,21.30
2019-05-12T12:52:38.759Z,20.96
2019-05-12T12:53:39.166Z,20.65
2019-05-12T12:54:38.153Z,20.58
2019-05-12T12:55:43.278Z,20.81
2019-05-12T12:56:39.149Z,20.59
2019-05-12T12:57:40.204Z,20.21
2019-05-12T12:58:39.115Z,20.34
2019-05-12T12:59:42.924Z,20.70
2019-05-12T13:00:47.168Z,21.05
2019-05-12T13:01:39.092Z,20.97
2019-05-12T13:02:39.088Z,20.95
2019-05-12T13:03:39.054Z,21.09